createdAt,value
2022-09-20T00:01:32.856Z,2.03
2022-09-20T00:04:02.311Z,2.10
2022-09-20T00:06:31.600Z,1.93
2022-09-20T00:09:01.131Z,2.20
2022-09-20T00:11:31.258Z,1.60
2022-09-20T00:14:01.253Z,2.07
2022-09-20T00:16:35.671Z,2.37
2022-09-20T00:19:05.825Z,2.03
2022-09-20T00:21:36.217Z,1.97
2022-09-20T00:24:03.734Z,2.17
2022-09-20T00:26:30.453Z,2.17
2022-09-20T00:28:58.803Z,1.93
2022-09-20T00:31:26.056Z,2.20
2022-09-20T00:34:16.350Z,2.40
2022-09-20T00:36:44.930Z,2.23
2022-09-20T00:39:14.275Z,2.50
2022-09-20T00:41:43.363Z,2.30
2022-09-20T00:44:53.533Z,2.20
2022-09-20T00:47:36.778Z,2.03
2022-09-20T00:50:17.250Z,2.10
2022-09-20T00:52:48.497Z,2.13
2022-09-20T00:55:16.845Z,1.87
2022-09-20T00:57:45.858Z,2.00
2022-09-20T01:00:14.321Z,2.17
2022-09-20T01:02:51.634Z,1.80
2022-09-20T01:05:20.002Z,2.37
2022-09-20T01:07:49.727Z,2.10
2022-09-20T01:10:16.634Z,1.80
2022-09-20T01:12:46.020Z,2.17
2022-09-20T01:15:15.625Z,1.77
2022-09-20T01:17:50.425Z,2.43
2022-09-20T01:20:32.106Z,2.13
2022-09-20T01:23:17.513Z,1.90
2022-09-20T01:26:02.285Z,2.30
2022-09-20T01:28:30.194Z,1.93
2022-09-20T01:31:17.210Z,1.80
2022-09-20T01:34:08.158Z,1.90
2022-09-20T01:36:54.174Z,1.73
2022-09-20T01:39:44.455Z,2.03
2022-09-20T01:42:14.137Z,2.00
2022-09-20T01:45:30.921Z,1.90
2022-09-20T01:48:33.721Z,2.00
2022-09-20T01:51:24.790Z,1.87
2022-09-20T01:54:12.421Z,1.63
2022-09-20T01:57:39.557Z,1.80
2022-09-20T02:00:17.554Z,1.63
2022-09-20T02:03:08.347Z,2.00
2022-09-20T02:05:50.131Z,1.80
2022-09-20T02:09:00.251Z,1.87
2022-09-20T02:11:57.560Z,1.60
2022-09-20T02:14:56.001Z,1.90
2022-09-20T02:18:06.848Z,1.70
2022-09-20T02:20:56.069Z,2.23
2022-09-20T02:23:44.518Z,1.80
2022-09-20T02:26:33.523Z,1.93
2022-09-20T02:30:00.576Z,1.77
2022-09-20T02:32:27.237Z,2.17
2022-09-20T02:35:33.310Z,2.37
2022-09-20T02:38:21.149Z,2.30
2022-09-20T02:41:13.542Z,1.77
2022-09-20T02:44:21.021Z,1.97
2022-09-20T02:47:09.382Z,2.27
2022-09-20T02:50:31.535Z,2.13
2022-09-20T02:53:09.687Z,2.27
2022-09-20T02:55:49.044Z,1.77
2022-09-20T02:58:46.118Z,1.90
2022-09-20T03:01:24.467Z,1.70
2022-09-20T03:04:22.296Z,1.87
2022-09-20T03:07:17.500Z,2.30
2022-09-20T03:10:06.981Z,2.10
2022-09-20T03:12:57.178Z,2.30
2022-09-20T03:16:09.125Z,2.13
2022-09-20T03:19:17.075Z,2.17
2022-09-20T03:22:26.769Z,1.80
2022-09-20T03:25:08.148Z,2.20
2022-09-20T04:09:21.197Z,2.20
2022-09-20T04:12:05.892Z,2.07
2022-09-20T04:14:52.714Z,2.00
2022-09-20T04:17:39.264Z,1.90
2022-09-20T04:20:34.695Z,1.80
2022-09-20T04:23:18.015Z,2.43
2022-09-20T04:25:48.242Z,2.00
2022-09-20T04:28:28.382Z,2.53
2022-09-20T04:31:05.789Z,2.10
2022-09-20T04:33:42.642Z,2.13
2022-09-20T04:36:58.461Z,2.37
2022-09-20T04:40:06.808Z,1.93
2022-09-20T04:42:55.210Z,2.40
2022-09-20T04:45:54.194Z,2.20
2022-09-20T04:48:52.409Z,2.33
2022-09-20T04:52:13.673Z,2.57
2022-09-20T04:54:45.779Z,2.30
2022-09-20T04:57:50.248Z,2.37
2022-09-20T05:00:22.041Z,2.40
2022-09-20T05:03:03.276Z,2.30
2022-09-20T05:05:57.228Z,2.60
2022-09-20T05:08:45.176Z,3.10
2022-09-20T05:11:32.616Z,3.20
2022-09-20T05:14:44.970Z,2.80
2022-09-20T05:17:45.054Z,3.30
2022-09-20T05:20:49.095Z,2.87
2022-09-20T05:23:59.664Z,3.00
2022-09-20T05:27:12.475Z,2.90
2022-09-20T05:30:22.896Z,2.50
2022-09-20T05:33:07.588Z,2.60
2022-09-20T05:36:04.989Z,2.53
2022-09-20T05:39:02.815Z,2.37
2022-09-20T05:42:09.153Z,2.57
2022-09-20T05:44:54.948Z,2.70
2022-09-20T05:47:35.884Z,3.30
2022-09-20T05:50:36.168Z,2.47
2022-09-20T05:53:33.934Z,3.07
2022-09-20T05:56:05.501Z,2.57
2022-09-20T05:58:58.077Z,3.13
2022-09-20T06:02:07.293Z,2.90
2022-09-20T06:05:01.212Z,2.67
2022-09-20T06:08:04.012Z,3.33
2022-09-20T06:11:05.716Z,2.90
2022-09-20T06:14:18.315Z,3.30
2022-09-20T06:17:12.833Z,3.37
2022-09-20T06:20:11.146Z,3.07
2022-09-20T06:22:44.896Z,3.63
2022-09-20T06:25:23.448Z,3.30
2022-09-20T06:27:54.829Z,3.70
2022-09-20T06:30:29.795Z,3.30
2022-09-20T06:33:20.421Z,3.47
2022-09-20T06:36:36.033Z,2.53
2022-09-20T06:39:51.670Z,3.63
2022-09-20T06:42:18.752Z,3.57
2022-09-20T06:44:46.854Z,3.67
2022-09-20T06:47:15.074Z,3.57
2022-09-20T06:49:42.671Z,3.13
2022-09-20T06:52:16.342Z,2.90
2022-09-20T06:54:46.087Z,2.70
2022-09-20T06:57:19.415Z,3.20
2022-09-20T06:59:46.093Z,3.10
2022-09-20T07:02:12.906Z,3.03
2022-09-20T07:04:39.949Z,3.30
2022-09-20T07:07:09.727Z,2.80
2022-09-20T07:09:36.504Z,3.13
2022-09-20T07:12:03.557Z,2.60
2022-09-20T07:14:30.975Z,2.90
2022-09-20T07:16:57.652Z,3.10
2022-09-20T07:19:24.354Z,2.60
2022-09-20T07:21:51.161Z,2.43
2022-09-20T07:24:17.966Z,2.80
2022-09-20T07:27:01.279Z,3.13
2022-09-20T07:29:29.201Z,3.17
2022-09-20T07:31:56.828Z,3.30
2022-09-20T07:34:23.926Z,3.00
2022-09-20T07:36:51.163Z,2.70
2022-09-20T07:39:18.267Z,3.10
2022-09-20T07:41:51.099Z,2.70
2022-09-20T07:44:21.942Z,2.80
2022-09-20T07:46:57.418Z,3.27
2022-09-20T07:49:26.100Z,2.77
2022-09-20T07:51:54.139Z,2.50
2022-09-20T07:54:21.152Z,2.90
2022-09-20T07:56:48.524Z,2.80
2022-09-20T07:59:19.547Z,2.63
2022-09-20T08:01:47.471Z,2.37
2022-09-20T08:04:14.509Z,2.70
2022-09-20T08:06:44.353Z,2.63
2022-09-20T08:09:13.386Z,2.90
2022-09-20T08:11:43.383Z,3.67
2022-09-20T08:14:15.546Z,3.00
2022-09-20T08:16:47.109Z,2.97
2022-09-20T08:19:20.824Z,3.23
2022-09-20T08:21:49.789Z,2.70
2022-09-20T08:24:17.077Z,3.07
2022-09-20T08:26:44.448Z,3.07
2022-09-20T08:29:13.281Z,2.90
2022-09-20T08:31:42.723Z,2.90
2022-09-20T08:34:12.866Z,2.80
2022-09-20T08:36:46.157Z,3.13
2022-09-20T08:42:38.967Z,3.00
2022-09-20T08:45:34.598Z,2.87
2022-09-20T08:48:07.117Z,2.70
2022-09-20T08:50:34.532Z,2.40
2022-09-20T08:53:06.026Z,2.27
2022-09-20T08:55:37.454Z,3.10
2022-09-20T08:58:08.532Z,2.37
2022-09-20T09:00:38.746Z,2.10
2022-09-20T09:03:12.041Z,2.27
2022-09-20T09:05:47.919Z,2.50
2022-09-20T09:08:18.883Z,2.10
2022-09-20T09:10:56.272Z,2.30
2022-09-20T09:13:43.286Z,2.00
2022-09-20T09:16:23.057Z,2.23
2022-09-20T09:18:51.676Z,2.00
2022-09-20T09:21:25.676Z,2.30
2022-09-20T09:24:01.089Z,2.20
2022-09-20T09:26:28.495Z,2.03
2022-09-20T09:29:16.001Z,1.67
2022-09-20T09:31:45.010Z,2.17
2022-09-20T09:34:30.841Z,3.00
2022-09-20T09:36:58.682Z,2.40
2022-09-20T09:39:40.545Z,2.23
2022-09-20T09:42:22.228Z,2.10
2022-09-20T09:44:50.285Z,2.23
2022-09-20T09:47:28.651Z,2.10
2022-09-20T09:50:02.587Z,2.27
2022-09-20T09:52:33.340Z,1.90
2022-09-20T09:55:05.374Z,2.07
2022-09-20T09:57:55.622Z,1.87
2022-09-20T10:00:27.135Z,2.10
2022-09-20T10:03:24.245Z,1.77
2022-09-20T10:06:32.094Z,1.80
2022-09-20T10:09:19.598Z,1.37
2022-09-20T10:12:20.590Z,1.73
2022-09-20T10:15:12.352Z,1.60
2022-09-20T10:17:47.651Z,1.73
2022-09-20T10:20:50.093Z,1.73
2022-09-20T10:24:08.906Z,1.70
2022-09-20T10:27:14.460Z,2.50
2022-09-20T10:29:59.498Z,2.20
2022-09-20T10:33:05.302Z,1.67
2022-09-20T10:36:08.222Z,1.60
2022-09-20T10:39:19.292Z,1.70
2022-09-20T10:42:27.073Z,1.20
2022-09-20T10:45:24.480Z,1.30
2022-09-20T10:48:07.314Z,1.40
2022-09-20T10:50:54.910Z,1.33
2022-09-20T10:53:54.760Z,1.10
2022-09-20T10:56:37.575Z,1.27
2022-09-20T10:59:35.646Z,1.43
2022-09-20T11:02:39.320Z,1.27
2022-09-20T11:05:57.552Z,1.57
2022-09-20T11:08:32.286Z,1.50
2022-09-20T11:11:34.600Z,1.70
2022-09-20T11:14:12.716Z,1.40
2022-09-20T11:16:49.810Z,1.33
2022-09-20T11:19:48.331Z,1.30
2022-09-20T11:22:21.269Z,1.50
2022-09-20T11:24:53.973Z,1.33
2022-09-20T11:27:31.990Z,1.60
2022-09-20T11:30:20.186Z,1.87
2022-09-20T11:33:26.743Z,1.80
2022-09-20T11:36:03.137Z,1.80
2022-09-20T11:38:53.069Z,2.27
2022-09-20T11:41:28.964Z,1.70
2022-09-20T11:44:06.955Z,1.93
2022-09-20T11:46:52.203Z,1.90
2022-09-20T11:49:21.698Z,1.70
2022-09-20T11:52:09.193Z,1.50
2022-09-20T11:55:27.930Z,1.80
2022-09-20T11:58:16.694Z,1.60
2022-09-20T12:00:47.782Z,1.63
2022-09-20T12:03:41.875Z,1.63
2022-09-20T12:06:27.772Z,1.57
2022-09-20T12:08:58.530Z,1.60
2022-09-20T12:11:43.517Z,1.57
2022-09-20T12:14:23.766Z,1.33
2022-09-20T12:16:51.777Z,1.50
2022-09-20T12:19:21.189Z,2.40
2022-09-20T12:21:59.904Z,1.40
2022-09-20T12:24:36.300Z,1.50
2022-09-20T12:27:41.901Z,1.23
2022-09-20T12:30:22.393Z,1.50
2022-09-20T12:32:58.603Z,1.40
2022-09-20T12:35:38.925Z,1.30
2022-09-20T12:38:27.140Z,1.73
2022-09-20T12:41:15.544Z,1.37
2022-09-20T12:44:03.634Z,1.27
2022-09-20T12:46:41.294Z,1.80
2022-09-20T12:49:49.282Z,1.37
2022-09-20T12:52:52.854Z,1.30
2022-09-20T12:55:33.823Z,1.10
2022-09-20T12:58:15.468Z,1.13
2022-09-20T13:00:58.157Z,1.37
2022-09-20T13:03:48.734Z,1.20
2022-09-20T13:06:24.854Z,1.30
2022-09-20T13:09:09.322Z,1.60
2022-09-20T13:11:44.822Z,1.10
2022-09-20T13:14:34.017Z,1.37
2022-09-20T13:17:13.586Z,1.40
2022-09-20T13:19:46.999Z,1.33
2022-09-20T13:22:24.425Z,1.40
2022-09-20T13:24:58.101Z,1.10
2022-09-20T13:27:32.287Z,1.37
2022-09-20T13:30:21.584Z,1.40
2022-09-20T13:32:50.211Z,1.10
2022-09-20T13:35:31.616Z,1.13
2022-09-20T13:38:08.673Z,1.20
2022-09-20T13:40:43.060Z,1.00
2022-09-20T13:43:39.809Z,1.13
2022-09-20T13:46:17.805Z,1.20
2022-09-20T13:48:52.759Z,1.00
2022-09-20T13:51:25.269Z,1.13
2022-09-20T13:53:52.268Z,1.27
2022-09-20T13:56:27.100Z,0.97
2022-09-20T13:58:55.761Z,1.00
2022-09-20T14:01:33.488Z,1.40
2022-09-20T14:04:14.723Z,1.60
2022-09-20T14:06:42.394Z,1.30
2022-09-20T14:09:23.509Z,1.00
2022-09-20T14:11:50.770Z,1.00
2022-09-20T14:14:22.181Z,1.17
2022-09-20T14:16:51.537Z,0.83
2022-09-20T14:19:34.729Z,0.90
2022-09-20T14:22:06.528Z,0.80
2022-09-20T14:24:44.476Z,1.07
2022-09-20T14:27:21.679Z,0.97
2022-09-20T14:29:54.085Z,1.17
2022-09-20T14:32:20.690Z,0.90
2022-09-20T14:34:55.081Z,1.20
2022-09-20T14:37:32.294Z,1.00
2022-09-20T14:40:28.415Z,1.10
2022-09-20T14:43:00.250Z,1.13
2022-09-20T14:45:39.660Z,1.60
2022-09-20T14:48:26.302Z,1.20
2022-09-20T14:51:23.262Z,1.20
2022-09-20T14:54:05.369Z,1.20
2022-09-20T14:56:43.131Z,1.17
2022-09-20T14:59:13.870Z,1.13
2022-09-20T15:01:46.401Z,0.97
2022-09-20T15:04:22.807Z,1.27
2022-09-20T15:06:51.052Z,1.20
2022-09-20T15:09:20.351Z,1.30
2022-09-20T15:11:49.864Z,1.30
2022-09-20T15:14:16.793Z,1.20
2022-09-20T15:16:43.611Z,1.20
2022-09-20T15:19:10.415Z,1.40
2022-09-20T15:21:37.129Z,0.90
2022-09-20T15:24:04.071Z,1.20
2022-09-20T15:26:32.745Z,1.13
2022-09-20T15:29:00.554Z,1.00
2022-09-20T15:31:28.031Z,1.10
2022-09-20T15:33:54.961Z,1.13
2022-09-20T15:36:21.660Z,0.80
2022-09-20T15:38:48.360Z,1.17
2022-09-20T15:41:15.175Z,0.90
2022-09-20T15:43:43.171Z,1.00
2022-09-20T15:46:20.039Z,1.00
2022-09-20T15:48:47.199Z,1.10
2022-09-20T15:51:15.390Z,1.23
2022-09-20T15:54:00.662Z,0.83
2022-09-20T15:56:31.331Z,1.00
2022-09-20T15:59:01.980Z,0.90
2022-09-20T16:01:35.455Z,1.00
2022-09-20T16:04:08.018Z,0.80
2022-09-20T16:06:35.291Z,0.90
2022-09-20T16:09:02.398Z,0.93
2022-09-20T16:11:29.108Z,1.00
2022-09-20T16:13:58.120Z,1.03
2022-09-20T16:16:27.701Z,1.33
2022-09-20T16:19:13.274Z,1.80
2022-09-20T16:21:42.992Z,2.17
2022-09-20T16:24:12.319Z,1.80
2022-09-20T16:26:40.122Z,2.00
2022-09-20T16:29:07.669Z,1.80
2022-09-20T16:31:49.555Z,2.07
2022-09-20T16:34:22.581Z,1.50
2022-09-20T16:36:53.018Z,1.90
2022-09-20T16:39:21.267Z,2.00
2022-09-20T16:41:49.025Z,2.13
2022-09-20T16:44:15.943Z,2.80
2022-09-20T16:46:45.001Z,2.73
2022-09-20T16:49:13.395Z,3.20
2022-09-20T16:51:42.945Z,3.30
2022-09-20T16:54:13.425Z,2.10
2022-09-20T16:56:44.930Z,1.60
2022-09-20T16:59:13.803Z,1.70
2022-09-20T17:01:41.018Z,1.77
2022-09-20T17:04:09.314Z,1.80
2022-09-20T17:06:38.499Z,1.93
2022-09-20T17:09:07.149Z,1.30
2022-09-20T17:11:37.742Z,1.33
2022-09-20T17:14:06.030Z,1.30
2022-09-20T17:16:36.797Z,1.40
2022-09-20T17:19:10.897Z,1.20
2022-09-20T17:21:43.243Z,1.30
2022-09-20T17:24:10.290Z,1.97
2022-09-20T17:26:41.232Z,2.07
2022-09-20T17:29:12.948Z,1.73
2022-09-20T17:31:43.823Z,1.50
2022-09-20T17:34:13.120Z,1.60
2022-09-20T17:36:43.558Z,1.20
2022-09-20T17:39:12.791Z,1.53
2022-09-20T17:41:42.700Z,1.83
2022-09-20T17:44:10.165Z,2.20
2022-09-20T17:46:40.180Z,2.40
2022-09-20T17:49:10.809Z,2.13
2022-09-20T17:51:43.109Z,1.80
2022-09-20T17:54:13.671Z,1.70
2022-09-20T17:56:43.414Z,1.50
2022-09-20T17:59:12.141Z,1.50
2022-09-20T18:01:40.427Z,1.40
2022-09-20T18:04:08.562Z,1.90
2022-09-20T18:06:42.008Z,2.97
2022-09-20T18:09:13.743Z,2.80
2022-09-20T18:11:46.165Z,4.70
2022-09-20T18:14:13.412Z,4.77
2022-09-20T18:16:40.580Z,5.60
2022-09-20T18:19:09.088Z,5.27
2022-09-20T18:21:38.175Z,3.63
2022-09-20T18:24:11.208Z,3.83
2022-09-20T18:26:40.364Z,5.73
2022-09-20T18:29:13.885Z,7.80
2022-09-20T18:31:54.622Z,7.30
2022-09-20T18:34:24.886Z,5.80
2022-09-20T18:36:55.152Z,5.93
2022-09-20T18:39:27.847Z,4.87
2022-09-20T18:41:55.468Z,5.17
2022-09-20T18:44:23.426Z,4.50
2022-09-20T18:46:54.059Z,4.03
2022-09-20T18:49:21.757Z,5.03
2022-09-20T18:51:49.412Z,5.30
2022-09-20T18:54:17.288Z,5.27
2022-09-20T18:56:46.785Z,5.60
2022-09-20T18:59:22.119Z,5.07
2022-09-20T19:02:08.413Z,4.07
2022-09-20T19:05:04.044Z,3.63
2022-09-20T19:07:56.347Z,3.90
2022-09-20T19:10:53.581Z,3.73
2022-09-20T19:13:35.744Z,3.60
2022-09-20T19:16:20.436Z,3.37
2022-09-20T19:19:33.797Z,3.40
2022-09-20T19:22:39.031Z,3.70
2022-09-20T19:25:29.482Z,3.90
2022-09-20T19:27:56.489Z,4.13
2022-09-20T19:30:23.563Z,5.90
2022-09-20T19:32:50.925Z,4.93
2022-09-20T19:35:32.003Z,4.30
2022-09-20T19:39:06.565Z,4.60
2022-09-20T19:42:09.379Z,3.80
2022-09-20T19:45:34.331Z,3.73
2022-09-20T19:48:38.921Z,4.20
2022-09-20T19:51:12.174Z,3.90
2022-09-20T19:53:39.601Z,4.00
2022-09-20T19:56:26.215Z,3.57
2022-09-20T19:58:54.946Z,3.50
2022-09-20T20:01:24.155Z,3.67
2022-09-20T20:03:53.128Z,3.40
2022-09-20T20:06:45.206Z,3.50
2022-09-20T20:09:36.405Z,3.00
2022-09-20T20:12:30.790Z,3.07
2022-09-20T20:15:28.940Z,3.30
2022-09-20T20:18:08.481Z,2.93
2022-09-20T20:20:48.466Z,2.90
2022-09-20T20:23:55.154Z,3.30
2022-09-20T20:26:25.221Z,3.10
2022-09-20T20:28:53.558Z,3.00
2022-09-20T20:31:20.989Z,3.40
2022-09-20T20:33:48.445Z,3.37
2022-09-20T20:36:17.143Z,3.10
2022-09-20T20:38:49.432Z,2.90
2022-09-20T20:41:21.574Z,2.50
2022-09-20T20:43:56.199Z,2.60
2022-09-20T20:46:23.709Z,2.70
2022-09-20T20:48:50.517Z,2.87
2022-09-20T20:51:20.854Z,2.80
2022-09-20T20:53:51.550Z,2.70
2022-09-20T20:56:23.390Z,2.83
2022-09-20T20:58:50.177Z,2.10
2022-09-20T21:01:27.692Z,2.60
2022-09-20T21:03:57.382Z,2.53
2022-09-20T21:06:28.404Z,2.43
2022-09-20T21:08:55.419Z,2.40
2022-09-20T21:11:28.573Z,2.57
2022-09-20T21:13:57.958Z,2.73
2022-09-20T21:16:45.427Z,2.23
2022-09-20T21:19:18.175Z,2.10
2022-09-20T21:21:47.740Z,2.60
2022-09-20T21:24:17.171Z,2.70
2022-09-20T21:26:44.274Z,2.40
2022-09-20T21:29:14.347Z,2.17
2022-09-20T21:31:45.147Z,2.30
2022-09-20T21:34:15.184Z,3.03
2022-09-20T21:36:43.840Z,2.83
2022-09-20T21:39:11.021Z,3.03
2022-09-20T21:41:39.293Z,3.97
2022-09-20T21:44:07.737Z,4.20
2022-09-20T21:46:40.019Z,4.23
2022-09-20T21:49:09.845Z,3.90
2022-09-20T21:51:39.588Z,3.40
2022-09-20T21:54:06.583Z,3.77
2022-09-20T21:56:36.363Z,2.97
2022-09-20T21:59:06.092Z,2.60
2022-09-20T22:01:40.068Z,2.73
2022-09-20T22:04:10.723Z,3.30
2022-09-20T22:06:43.648Z,3.00
2022-09-20T22:09:17.241Z,3.43
2022-09-20T22:11:47.742Z,4.00
2022-09-20T22:14:19.024Z,3.13
2022-09-20T22:16:48.006Z,3.30
2022-09-20T22:19:17.472Z,2.83
2022-09-20T22:21:50.873Z,2.80
2022-09-20T22:24:18.490Z,2.40
2022-09-20T22:26:49.051Z,2.43
2022-09-20T22:29:17.442Z,2.63
2022-09-20T22:31:46.876Z,2.27
2022-09-20T22:34:22.523Z,2.27
2022-09-20T22:36:49.606Z,2.63
2022-09-20T22:39:17.021Z,2.90
2022-09-20T22:41:44.807Z,2.30
2022-09-20T22:44:12.004Z,2.70
2022-09-20T22:46:39.525Z,2.50
2022-09-20T22:49:08.689Z,2.60
2022-09-20T22:51:36.639Z,2.23
2022-09-20T22:54:09.723Z,3.07
2022-09-20T22:56:38.252Z,3.07
2022-09-20T22:59:09.097Z,2.50
2022-09-20T23:01:42.712Z,2.50
2022-09-20T23:04:19.290Z,2.60
2022-09-20T23:06:54.678Z,2.50
2022-09-20T23:09:25.497Z,2.60
2022-09-20T23:11:52.643Z,2.07
2022-09-20T23:14:21.767Z,2.60
2022-09-20T23:16:49.436Z,2.33
2022-09-20T23:19:16.738Z,2.10
2022-09-20T23:21:44.696Z,1.97
2022-09-20T23:24:15.265Z,2.10
2022-09-20T23:26:43.289Z,2.03
2022-09-20T23:29:13.584Z,2.40
2022-09-20T23:31:45.777Z,2.20
2022-09-20T23:34:13.909Z,2.50
2022-09-20T23:36:41.587Z,2.00
2022-09-20T23:39:10.391Z,2.17
2022-09-20T23:41:38.179Z,2.30
2022-09-20T23:44:06.457Z,2.40
2022-09-20T23:46:34.310Z,2.20
2022-09-20T23:49:01.447Z,2.30
2022-09-20T23:51:29.316Z,2.37
2022-09-20T23:53:56.442Z,2.30
2022-09-20T23:56:24.242Z,2.20
2022-09-20T23:58:51.298Z,2.30
